Maydena Post Office, Tasmania

2:39 AM AEDT on October 31, 2014 (GMT +1100)
Hamilton | Change Station
CLOSE
Current Station
Personal Weather Station
Location: Hamilton, TASMANIA
Elevation: 312 ft
Nearby Weather Stations

Elev 312 ft 42.55 °S, 146.84 °E | Updated 35 seconds ago

Clear
Clear
52.9 °F
Feels Like 52.9 °F
N
2.2
Wind Variable Wind from NW
Gusts 3.1 mph

Today
High -- | Low -- °F
--% Chance of Precip.
Yesterday
High -- | Low -- °F
Precip. -- in
5:59 AM 7:55 PM
Waxing Crescent, 45% visible
Pressure 29.74 in
Visibility -9999.0 miles
Clouds
Dew Point 46 °F
Humidity 76%
Rainfall 0.00 in
Snow Depth Not available.
UV Not available.
Pollen Not available.
Air Quality Not available.
Flu Activity Not available.
METAR YMHB 301500Z 33007KT CAVOK 11/08 Q1007

More Conditions Fewer Conditions

Pressure 29.74 in
Visibility -9999.0 miles
Clouds
Dew Point 46 °F
Humidity 76%
Rainfall 0.00 in
Snow Depth Not available.
UV Not available.
Pollen Not available.
Air Quality Not available.
Flu Activity Not available.
METAR YMHB 301500Z 33007KT CAVOK 11/08 Q1007

More Conditions Fewer Conditions

10-Day Weather Forecast

Almanac

Astronomy

Oct. 31, 2014 Rise Set
Actual Time
Civil Twilight
Nautical Twilight
Astronomical Twilight
Moon
Length of Visible Light
Length of Day
Tomorrow will be .
, % of the Moon is Illuminated

Today's Extremes

Country Highs Country Lows

Community

WunderPhotos

Upload Photos

1,766,387 photos uploaded!

WunderBlogs® & News

Nearby

Air Quality

  Air Quality AQ Index Pollutant
Not available.

Snow Depth

Station Depth Elevation

Earthquake Activity

City Distance Mag. Time & Date
Minimum magnitude displayed is 2.5.

Coastal Water Temperatures

Place Temperature

Nearby Weather Stations